Candeleda, Spain
Current Conditions -  °F | °C
As of 10:00 AM on Sunday 21 Dec 2014 (Local Time) from LESA Reporting Station
Moderate Fog Moderate Fog  
Wind Chill: 34°   Ceiling: 200
Heat Index: 37°   Visibility: 0.5mi
Dew Point: 37°   Wind: 5mph
Humidity: 100%   Direction: 110°ESE
Pressure: 30.53"   Gusts: NA
Location:  40.16°N, 5.24°W
Report Text: LESA 210900Z 11004KT 0800 R21/1300U FG VV002 03/03 Q1034
Loading
Personal Weather Stations






























Interactive Weather Map New forecast layout! Learn more

10-Day Weather Forecast

Advertisements
Track Severe Weather on mobile